createdAt,value
2022-09-11T00:01:33.431Z,9.65
2022-09-11T00:04:06.398Z,9.62
2022-09-11T00:06:38.859Z,9.59
2022-09-11T00:09:11.081Z,9.54
2022-09-11T00:11:44.410Z,9.51
2022-09-11T00:14:16.800Z,9.49
2022-09-11T00:16:49.204Z,9.47
2022-09-11T00:19:22.216Z,9.43
2022-09-11T00:21:55.842Z,9.38
2022-09-11T00:24:27.978Z,9.34
2022-09-11T00:27:02.505Z,9.29
2022-09-11T00:29:34.342Z,9.24
2022-09-11T00:32:06.388Z,9.39
2022-09-11T00:34:39.274Z,9.22
2022-09-11T00:37:11.808Z,9.23
2022-09-11T00:39:44.094Z,9.25
2022-09-11T00:42:16.300Z,9.22
2022-09-11T00:44:54.564Z,9.20
2022-09-11T00:47:26.922Z,9.15
2022-09-11T00:50:01.807Z,9.13
2022-09-11T00:52:36.683Z,9.09
2022-09-11T00:55:18.799Z,9.04
2022-09-11T00:57:53.812Z,8.98
2022-09-11T01:00:25.846Z,8.95
2022-09-11T01:02:59.386Z,8.89
2022-09-11T01:05:34.905Z,8.86
2022-09-11T01:08:07.306Z,8.83
2022-09-11T01:10:59.353Z,8.81
2022-09-11T01:13:38.922Z,8.79
2022-09-11T01:16:23.045Z,8.77
2022-09-11T01:19:03.902Z,8.75
2022-09-11T01:21:38.809Z,8.76
2022-09-11T01:24:40.851Z,8.76
2022-09-11T01:27:35.501Z,8.77
2022-09-11T01:30:19.262Z,8.81
2022-09-11T01:33:22.990Z,8.85
2022-09-11T01:36:06.966Z,8.89
2022-09-11T01:38:47.940Z,8.90
2022-09-11T01:41:34.901Z,8.88
2022-09-11T01:44:12.984Z,8.87
2022-09-11T01:46:52.751Z,8.86
2022-09-11T01:49:36.276Z,8.84
2022-09-11T01:52:13.048Z,8.84
2022-09-11T01:54:54.017Z,8.85
2022-09-11T01:57:35.037Z,8.84
2022-09-11T02:00:11.529Z,8.83
2022-09-11T02:03:08.955Z,8.77
2022-09-11T02:05:55.723Z,8.72
2022-09-11T02:08:31.064Z,8.68
2022-09-11T02:11:07.198Z,8.62
2022-09-11T02:13:42.187Z,8.53
2022-09-11T02:16:36.961Z,8.51
2022-09-11T02:19:11.933Z,8.46
2022-09-11T02:21:45.049Z,8.45
2022-09-11T02:24:19.384Z,8.38
2022-09-11T02:26:54.402Z,8.38
2022-09-11T02:29:26.783Z,8.34
2022-09-11T02:32:00.890Z,8.31
2022-09-11T02:34:35.616Z,8.27
2022-09-11T02:37:11.627Z,8.24
2022-09-11T02:40:12.331Z,8.25
2022-09-11T02:42:47.474Z,8.21
2022-09-11T02:45:31.642Z,8.19
2022-09-11T02:48:05.247Z,8.21
2022-09-11T02:50:49.297Z,8.37
2022-09-11T02:53:43.952Z,8.22
2022-09-11T02:56:37.432Z,8.22
2022-09-11T02:59:13.194Z,8.23
2022-09-11T03:01:58.255Z,8.23
2022-09-11T03:04:31.446Z,8.25
2022-09-11T03:07:03.509Z,8.31
2022-09-11T03:09:36.608Z,8.32
2022-09-11T03:12:10.551Z,8.35
2022-09-11T03:14:42.208Z,8.54
2022-09-11T03:17:14.366Z,8.42
2022-09-11T03:19:46.431Z,8.44
2022-09-11T03:22:18.604Z,8.48
2022-09-11T03:24:50.906Z,8.53
2022-09-11T03:27:24.657Z,8.61
2022-09-11T03:29:57.060Z,8.69
2022-09-11T03:32:29.082Z,8.80
2022-09-11T03:35:02.486Z,8.88
2022-09-11T03:37:36.043Z,9.00
2022-09-11T03:40:09.041Z,9.08
2022-09-11T03:42:41.202Z,9.18
2022-09-11T03:45:14.509Z,9.27
2022-09-11T03:47:46.590Z,9.41
2022-09-11T03:50:18.763Z,9.51
2022-09-11T03:52:51.897Z,9.63
2022-09-11T03:55:23.998Z,9.70
2022-09-11T03:57:56.323Z,9.79
2022-09-11T04:00:29.682Z,9.85
2022-09-11T04:03:02.209Z,9.93
2022-09-11T04:05:36.102Z,10.00
2022-09-11T04:08:08.153Z,10.12
2022-09-11T04:10:41.667Z,10.18
2022-09-11T04:13:13.888Z,10.26
2022-09-11T04:15:45.845Z,10.36
2022-09-11T04:18:17.830Z,10.48
2022-09-11T04:20:50.023Z,10.61
2022-09-11T04:23:22.700Z,10.74
2022-09-11T04:25:54.796Z,10.88
2022-09-11T04:28:28.552Z,11.01
2022-09-11T04:31:05.276Z,11.13
2022-09-11T04:33:37.981Z,11.26
2022-09-11T04:36:13.205Z,11.40
2022-09-11T04:38:45.744Z,11.55
2022-09-11T04:41:18.191Z,11.69
2022-09-11T04:43:50.484Z,11.84
2022-09-11T04:46:23.631Z,11.97
2022-09-11T04:48:59.385Z,12.10
2022-09-11T04:51:33.568Z,12.22
2022-09-11T04:54:06.043Z,12.34
2022-09-11T04:56:39.267Z,12.54
2022-09-11T04:59:18.112Z,12.49
2022-09-11T05:01:52.427Z,12.54
2022-09-11T05:04:26.370Z,12.60
2022-09-11T05:06:59.324Z,12.69
2022-09-11T05:09:31.488Z,12.88
2022-09-11T05:12:04.270Z,12.96
2022-09-11T05:14:38.072Z,13.01
2022-09-11T05:17:10.439Z,13.05
2022-09-11T05:19:43.851Z,13.11
2022-09-11T05:22:16.016Z,13.16
2022-09-11T05:24:49.719Z,13.20
2022-09-11T05:27:21.906Z,13.28
2022-09-11T05:29:54.072Z,13.34
2022-09-11T05:32:26.333Z,13.43
2022-09-11T05:34:59.911Z,13.51
2022-09-11T05:37:32.755Z,13.61
2022-09-11T05:40:04.906Z,13.69
2022-09-11T05:42:37.383Z,13.92
2022-09-11T05:45:09.794Z,14.39
2022-09-11T05:47:42.692Z,15.29
2022-09-11T05:50:14.832Z,16.00
2022-09-11T05:52:46.842Z,16.60
2022-09-11T05:55:18.726Z,17.09
2022-09-11T05:57:55.455Z,17.64
2022-09-11T06:00:27.481Z,17.89
2022-09-11T06:03:01.390Z,18.05
2022-09-11T06:05:33.951Z,18.39
2022-09-11T06:08:06.864Z,18.71
2022-09-11T06:10:40.998Z,19.34
2022-09-11T06:13:13.359Z,19.57
2022-09-11T06:15:47.455Z,19.67
2022-09-11T06:18:19.650Z,19.62
2022-09-11T06:21:07.927Z,19.55
2022-09-11T06:23:41.758Z,19.52
2022-09-11T06:26:18.407Z,19.64
2022-09-11T06:28:51.744Z,19.66
2022-09-11T06:31:26.748Z,19.75
2022-09-11T06:33:59.280Z,20.21
2022-09-11T06:36:31.951Z,20.75
2022-09-11T06:39:05.527Z,21.42
2022-09-11T06:41:38.589Z,21.75
2022-09-11T06:44:15.431Z,21.81
2022-09-11T06:46:47.889Z,21.90
2022-09-11T06:49:20.056Z,22.24
2022-09-11T06:52:09.781Z,22.41
2022-09-11T06:54:42.167Z,22.33
2022-09-11T06:57:16.164Z,22.12
2022-09-11T06:59:48.301Z,21.70
2022-09-11T07:02:20.681Z,21.18
2022-09-11T07:04:53.414Z,20.71
2022-09-11T07:07:25.448Z,20.35
2022-09-11T07:09:57.696Z,20.07
2022-09-11T07:12:29.674Z,19.83
2022-09-11T07:15:01.922Z,19.59
2022-09-11T07:17:34.119Z,19.33
2022-09-11T07:20:08.407Z,19.08
2022-09-11T07:22:41.108Z,18.86
2022-09-11T07:25:13.760Z,18.73
2022-09-11T07:27:46.139Z,18.54
2022-09-11T07:30:18.775Z,18.42
2022-09-11T07:32:52.338Z,18.35
2022-09-11T07:35:24.380Z,18.21
2022-09-11T07:37:57.379Z,18.07
2022-09-11T07:40:31.382Z,17.94
2022-09-11T07:43:04.501Z,17.83
2022-09-11T07:45:38.083Z,17.74
2022-09-11T07:48:10.589Z,17.69
2022-09-11T07:50:42.874Z,17.70
2022-09-11T07:53:15.639Z,17.71
2022-09-11T07:55:48.022Z,17.79
2022-09-11T07:58:20.213Z,17.85
2022-09-11T08:00:55.318Z,17.86
2022-09-11T08:03:27.732Z,17.90
2022-09-11T08:06:06.016Z,17.91
2022-09-11T08:08:39.338Z,17.90
2022-09-11T08:11:14.703Z,17.85
2022-09-11T08:13:55.099Z,17.77
2022-09-11T08:16:28.546Z,17.76
2022-09-11T08:19:02.007Z,17.80
2022-09-11T08:21:34.502Z,18.13
2022-09-11T08:24:08.187Z,18.05
2022-09-11T08:26:40.047Z,18.07
2022-09-11T08:29:12.672Z,18.07
2022-09-11T08:31:45.425Z,18.10
2022-09-11T08:34:17.717Z,18.11
2022-09-11T08:36:51.589Z,18.14
2022-09-11T08:39:23.820Z,18.18
2022-09-11T08:42:09.535Z,18.18
2022-09-11T08:44:50.545Z,18.17
2022-09-11T08:47:36.163Z,18.28
2022-09-11T08:50:26.233Z,18.38
2022-09-11T08:53:01.768Z,18.50
2022-09-11T08:55:39.633Z,18.66
2022-09-11T08:58:22.445Z,18.76
2022-09-11T09:01:09.510Z,18.91
2022-09-11T09:03:48.126Z,19.06
2022-09-11T09:06:41.999Z,19.19
2022-09-11T09:09:23.053Z,19.30
2022-09-11T09:12:08.209Z,19.36
2022-09-11T09:14:52.345Z,19.32
2022-09-11T09:17:30.593Z,19.27
2022-09-11T09:20:22.163Z,19.22
2022-09-11T09:23:03.771Z,19.22
2022-09-11T09:25:41.034Z,19.30
2022-09-11T09:28:29.589Z,19.31
2022-09-11T09:31:06.244Z,19.29
2022-09-11T09:33:51.450Z,19.27
2022-09-11T09:36:33.510Z,19.29
2022-09-11T09:39:09.224Z,19.30
2022-09-11T09:42:12.844Z,19.37
2022-09-11T09:45:07.771Z,19.48
2022-09-11T09:47:44.526Z,19.57
2022-09-11T09:50:25.382Z,19.66
2022-09-11T09:53:00.283Z,19.75
2022-09-11T09:55:35.549Z,19.82
2022-09-11T09:58:10.675Z,19.81
2022-09-11T10:00:43.177Z,19.89
2022-09-11T10:03:20.901Z,19.88
2022-09-11T10:05:56.096Z,19.87
2022-09-11T10:08:38.817Z,19.80
2022-09-11T10:11:13.543Z,19.73
2022-09-11T10:13:48.498Z,19.71
2022-09-11T10:16:28.885Z,19.73
2022-09-11T10:19:01.099Z,19.72
2022-09-11T10:21:34.103Z,19.84
2022-09-11T10:24:21.111Z,19.99
2022-09-11T10:26:55.886Z,20.14
2022-09-11T10:29:33.121Z,20.25
2022-09-11T10:32:05.865Z,20.40
2022-09-11T10:34:40.823Z,20.55
2022-09-11T10:37:30.732Z,20.63
2022-09-11T10:40:09.001Z,20.71
2022-09-11T10:42:42.001Z,20.67
2022-09-11T10:45:17.201Z,20.65
2022-09-11T10:47:50.403Z,20.71
2022-09-11T10:50:28.898Z,20.78
2022-09-11T10:53:18.685Z,20.80
2022-09-11T10:55:55.098Z,20.79
2022-09-11T10:58:31.199Z,20.71
2022-09-11T11:01:03.488Z,20.74
2022-09-11T11:03:36.327Z,20.78
2022-09-11T11:06:27.819Z,20.83
2022-09-11T11:09:17.723Z,20.91
2022-09-11T11:12:01.682Z,21.09
2022-09-11T11:14:51.585Z,21.14
2022-09-11T11:17:48.838Z,21.19
2022-09-11T11:20:47.704Z,21.12
2022-09-11T11:23:31.619Z,21.09
2022-09-11T11:26:15.827Z,21.16
2022-09-11T11:28:56.763Z,21.29
2022-09-11T11:31:48.534Z,21.36
2022-09-11T11:34:41.263Z,21.42
2022-09-11T11:37:19.279Z,21.47
2022-09-11T11:39:57.045Z,21.45
2022-09-11T11:42:47.211Z,21.35
2022-09-11T11:45:30.000Z,21.28
2022-09-11T11:48:05.116Z,21.25
2022-09-11T11:50:46.094Z,21.27
2022-09-11T11:53:30.454Z,21.27
2022-09-11T11:56:05.414Z,21.25
2022-09-11T11:59:04.408Z,21.21
2022-09-11T12:01:51.509Z,21.12
2022-09-11T12:04:29.792Z,21.07
2022-09-11T12:07:03.459Z,20.94
2022-09-11T12:09:35.810Z,20.86
2022-09-11T12:12:09.445Z,20.87
2022-09-11T12:14:44.641Z,20.83
2022-09-11T12:17:31.514Z,20.75
2022-09-11T12:20:31.899Z,20.71
2022-09-11T12:23:05.762Z,20.74
2022-09-11T12:25:40.819Z,20.77
2022-09-11T12:28:25.276Z,20.75
2022-09-11T12:33:58.464Z,20.72
2022-09-11T12:36:39.746Z,20.75
2022-09-11T12:39:33.279Z,20.71
2022-09-11T12:42:26.477Z,20.69
2022-09-11T12:44:59.981Z,20.59
2022-09-11T12:47:39.066Z,20.62
2022-09-11T12:50:14.531Z,20.68
2022-09-11T12:52:49.486Z,20.81
2022-09-11T12:55:45.516Z,21.06
2022-09-11T12:58:23.350Z,21.25
2022-09-11T13:01:08.607Z,21.58
2022-09-11T13:03:53.736Z,21.84
2022-09-11T13:06:29.190Z,22.06
2022-09-11T13:09:02.965Z,22.08
2022-09-11T13:11:41.538Z,22.01
2022-09-11T13:14:33.224Z,21.95
2022-09-11T13:17:08.504Z,21.81
2022-09-11T13:19:40.608Z,21.68
2022-09-11T13:22:33.791Z,21.54
2022-09-11T13:25:19.223Z,21.45
2022-09-11T13:28:01.386Z,21.35
2022-09-11T13:30:35.222Z,21.21
2022-09-11T13:33:09.877Z,21.01
2022-09-11T13:35:44.899Z,20.85
2022-09-11T13:38:19.942Z,20.54
2022-09-11T13:41:05.133Z,20.30
2022-09-11T13:43:49.465Z,20.09
2022-09-11T13:46:24.780Z,19.96
2022-09-11T13:49:00.424Z,19.86
2022-09-11T13:51:33.414Z,19.78
2022-09-11T13:54:26.528Z,19.69
2022-09-11T13:57:04.471Z,19.58
2022-09-11T13:59:39.841Z,19.47
2022-09-11T14:02:44.769Z,19.34
2022-09-11T14:05:22.914Z,19.25
2022-09-11T14:08:05.132Z,19.14
2022-09-11T14:10:50.025Z,19.06
2022-09-11T14:13:27.041Z,18.96
2022-09-11T14:16:02.235Z,18.86
2022-09-11T14:19:13.226Z,18.77
2022-09-11T14:21:48.438Z,18.70
2022-09-11T14:24:38.424Z,18.63
2022-09-11T14:27:42.134Z,18.55
2022-09-11T14:30:38.209Z,18.48
2022-09-11T14:33:20.216Z,18.42
2022-09-11T14:35:55.367Z,18.32
2022-09-11T14:38:28.009Z,18.22
2022-09-11T14:41:02.671Z,18.14
2022-09-11T14:43:37.509Z,18.05
2022-09-11T14:46:09.946Z,17.98
2022-09-11T14:48:44.417Z,17.89
2022-09-11T14:51:16.512Z,17.79
2022-09-11T14:53:50.220Z,17.70
2022-09-11T14:56:24.418Z,17.58
2022-09-11T14:58:57.869Z,17.49
2022-09-11T15:01:30.928Z,17.38
2022-09-11T15:04:03.433Z,17.25
2022-09-11T15:06:36.092Z,17.16
2022-09-11T15:09:08.952Z,17.06
2022-09-11T15:11:41.865Z,16.94
2022-09-11T15:14:27.875Z,16.86
2022-09-11T15:16:51.544Z,16.73
2022-09-11T15:19:24.198Z,16.73
2022-09-11T15:21:57.184Z,16.67
2022-09-11T15:24:30.357Z,16.58
2022-09-11T15:27:04.021Z,16.52
2022-09-11T15:29:39.306Z,16.47
2022-09-11T15:32:11.881Z,16.40
2022-09-11T15:34:45.457Z,16.33
2022-09-11T15:37:20.464Z,16.29
2022-09-11T15:39:53.752Z,16.23
2022-09-11T15:42:26.663Z,16.18
2022-09-11T15:45:01.914Z,16.13
2022-09-11T15:47:34.786Z,16.08
2022-09-11T15:50:08.083Z,16.03
2022-09-11T15:52:42.255Z,15.96
2022-09-11T15:55:14.589Z,15.90
2022-09-11T15:57:46.868Z,15.80
2022-09-11T16:00:19.180Z,15.75
2022-09-11T16:02:53.849Z,15.72
2022-09-11T16:05:25.343Z,15.66
2022-09-11T16:07:59.173Z,15.78
2022-09-11T16:10:32.996Z,15.60
2022-09-11T16:13:05.575Z,15.56
2022-09-11T16:15:38.112Z,15.50
2022-09-11T16:18:10.605Z,15.46
2022-09-11T16:20:44.369Z,15.38
2022-09-11T16:23:17.095Z,15.35
2022-09-11T16:25:50.788Z,15.36
2022-09-11T16:28:24.162Z,15.31
2022-09-11T16:30:56.596Z,15.32
2022-09-11T16:33:31.045Z,15.30
2022-09-11T16:36:05.838Z,15.18
2022-09-11T16:38:40.467Z,15.40
2022-09-11T16:41:16.999Z,15.25
2022-09-11T16:43:52.348Z,15.22
2022-09-11T16:46:27.069Z,15.26
2022-09-11T16:49:01.930Z,15.25
2022-09-11T16:51:34.718Z,15.26
2022-09-11T16:54:08.228Z,15.29
2022-09-11T16:56:45.363Z,15.29
2022-09-11T16:59:15.935Z,15.25
2022-09-11T17:01:49.166Z,15.24
2022-09-11T17:04:22.014Z,15.23
2022-09-11T17:06:55.396Z,15.20
2022-09-11T17:09:27.793Z,15.20
2022-09-11T17:12:00.203Z,15.21
2022-09-11T17:14:33.162Z,15.03
2022-09-11T17:17:05.388Z,15.15
2022-09-11T17:19:37.834Z,15.13
2022-09-11T17:22:11.136Z,15.12
2022-09-11T17:24:43.853Z,15.10
2022-09-11T17:27:16.058Z,15.09
2022-09-11T17:29:48.478Z,15.05
2022-09-11T17:32:28.201Z,15.06
2022-09-11T17:34:55.447Z,14.98
2022-09-11T17:37:28.423Z,15.06
2022-09-11T17:40:02.354Z,15.06
2022-09-11T17:42:35.167Z,14.95
2022-09-11T17:45:07.862Z,15.04
2022-09-11T17:47:41.577Z,15.02
2022-09-11T17:50:14.102Z,15.02
2022-09-11T17:52:46.324Z,14.97
2022-09-11T17:55:18.895Z,14.94
2022-09-11T17:57:54.899Z,14.88
2022-09-11T18:00:27.222Z,14.85
2022-09-11T18:03:00.209Z,14.80
2022-09-11T18:05:33.861Z,14.58
2022-09-11T18:08:06.668Z,14.58
2022-09-11T18:10:42.296Z,14.67
2022-09-11T18:13:14.827Z,14.56
2022-09-11T18:15:47.276Z,14.48
2022-09-11T18:18:19.689Z,14.48
2022-09-11T18:20:55.655Z,14.56
2022-09-11T18:23:29.653Z,14.55
2022-09-11T18:26:02.029Z,14.54
2022-09-11T18:28:34.649Z,14.46
2022-09-11T18:31:08.401Z,14.46
2022-09-11T18:33:41.223Z,14.57
2022-09-11T18:36:14.055Z,14.59
2022-09-11T18:38:48.107Z,14.57
2022-09-11T18:41:20.632Z,14.52
2022-09-11T18:43:57.607Z,14.54
2022-09-11T18:46:31.985Z,14.39
2022-09-11T18:49:04.884Z,14.53
2022-09-11T18:51:39.246Z,14.51
2022-09-11T18:54:21.388Z,14.51
2022-09-11T18:56:53.618Z,14.49
2022-09-11T18:59:25.838Z,14.50
2022-09-11T19:02:00.184Z,14.53
2022-09-11T19:04:33.043Z,14.53
2022-09-11T19:07:05.853Z,14.52
2022-09-11T19:09:41.614Z,14.54
2022-09-11T19:12:12.244Z,14.54
2022-09-11T19:14:47.133Z,14.55
2022-09-11T19:17:19.845Z,14.52
2022-09-11T19:19:52.078Z,14.52
2022-09-11T19:22:24.957Z,14.44
2022-09-11T19:24:59.733Z,14.44
2022-09-11T19:27:33.786Z,14.43
2022-09-11T19:30:07.031Z,14.55
2022-09-11T19:32:39.278Z,14.55
2022-09-11T19:35:11.545Z,14.46
2022-09-11T19:37:43.556Z,14.60
2022-09-11T19:40:15.624Z,14.56
2022-09-11T19:42:47.995Z,14.56
2022-09-11T19:45:20.089Z,14.57
2022-09-11T19:47:52.756Z,14.58
2022-09-11T19:50:25.052Z,14.58
2022-09-11T19:52:57.182Z,14.59
2022-09-11T19:55:29.717Z,14.58
2022-09-11T19:58:01.683Z,14.57
2022-09-11T20:00:35.243Z,14.54
2022-09-11T20:03:07.366Z,14.52
2022-09-11T20:05:41.183Z,14.50
2022-09-11T20:08:16.325Z,14.55
2022-09-11T20:10:48.862Z,14.56
2022-09-11T20:13:20.933Z,14.49
2022-09-11T20:15:53.158Z,14.50
2022-09-11T20:18:25.093Z,14.50
2022-09-11T20:21:00.356Z,14.49
2022-09-11T20:23:32.754Z,14.48
2022-09-11T20:26:17.185Z,14.35
2022-09-11T20:28:55.326Z,14.45
2022-09-11T20:31:30.282Z,14.44
2022-09-11T20:34:03.311Z,14.44
2022-09-11T20:36:35.703Z,14.45
2022-09-11T20:39:08.108Z,14.43
2022-09-11T20:41:40.715Z,14.40
2022-09-11T20:44:13.428Z,14.42
2022-09-11T20:46:48.774Z,14.40
2022-09-11T20:49:21.350Z,14.41
2022-09-11T20:51:53.602Z,14.25
2022-09-11T20:54:25.913Z,14.34
2022-09-11T20:56:58.070Z,14.33
2022-09-11T20:59:31.000Z,14.33
2022-09-11T21:02:03.187Z,14.34
2022-09-11T21:04:35.538Z,14.32
2022-09-11T21:07:07.921Z,14.31
2022-09-11T21:09:40.719Z,14.31
2022-09-11T21:12:13.326Z,14.32
2022-09-11T21:14:46.237Z,14.30
2022-09-11T21:17:18.621Z,14.28
2022-09-11T21:19:53.202Z,14.26
2022-09-11T21:22:24.526Z,14.23
2022-09-11T21:24:57.929Z,14.23
2022-09-11T21:27:30.161Z,14.20
2022-09-11T21:30:02.413Z,14.20
2022-09-11T21:32:35.945Z,14.19
2022-09-11T21:35:09.262Z,14.17
2022-09-11T21:37:41.501Z,14.15
2022-09-11T21:40:14.023Z,14.17
2022-09-11T21:42:46.545Z,14.15
2022-09-11T21:45:19.003Z,14.11
2022-09-11T21:47:51.426Z,14.11
2022-09-11T21:50:23.971Z,14.15
2022-09-11T21:52:56.240Z,14.15
2022-09-11T21:55:28.816Z,14.12
2022-09-11T21:58:00.991Z,14.11
2022-09-11T22:00:38.395Z,14.09
2022-09-11T22:03:10.124Z,14.07
2022-09-11T22:05:43.530Z,14.10
2022-09-11T22:08:17.604Z,14.04
2022-09-11T22:10:50.811Z,14.04
2022-09-11T22:13:23.005Z,14.26
2022-09-11T22:15:55.339Z,14.07
2022-09-11T22:18:28.262Z,14.01
2022-09-11T22:21:01.473Z,14.00
2022-09-11T22:23:34.707Z,13.97
2022-09-11T22:26:10.260Z,13.95
2022-09-11T22:28:43.979Z,13.95
2022-09-11T22:31:21.743Z,13.93
2022-09-11T22:33:55.204Z,13.87
2022-09-11T22:36:30.511Z,13.86
2022-09-11T22:39:05.691Z,13.83
2022-09-11T22:41:37.706Z,13.79
2022-09-11T22:44:14.329Z,13.74
2022-09-11T22:46:48.806Z,13.73
2022-09-11T22:49:20.999Z,13.72
2022-09-11T22:51:53.826Z,13.69
2022-09-11T22:54:26.094Z,13.66
2022-09-11T22:56:58.877Z,13.62
2022-09-11T22:59:31.382Z,13.60
2022-09-11T23:02:04.284Z,13.55
2022-09-11T23:04:36.303Z,13.54
2022-09-11T23:07:16.037Z,13.52
2022-09-11T23:09:49.736Z,13.50
2022-09-11T23:12:22.143Z,13.49
2022-09-11T23:14:54.473Z,13.50
2022-09-11T23:17:26.811Z,13.49
2022-09-11T23:19:59.164Z,13.49
2022-09-11T23:22:32.971Z,13.46
2022-09-11T23:25:05.785Z,13.45
2022-09-11T23:27:38.053Z,13.40
2022-09-11T23:30:10.957Z,13.38
2022-09-11T23:32:43.322Z,13.33
2022-09-11T23:35:15.723Z,13.28
2022-09-11T23:37:47.974Z,13.21
2022-09-11T23:40:19.989Z,13.17
2022-09-11T23:42:52.445Z,13.14
2022-09-11T23:45:24.529Z,13.10
2022-09-11T23:47:57.009Z,13.05
2022-09-11T23:50:29.426Z,13.03
2022-09-11T23:53:01.512Z,13.00
2022-09-11T23:55:33.575Z,12.95
2022-09-11T23:58:05.722Z,12.90
